createdAt,value
2023-03-13T00:01:56.538Z,98720.38
2023-03-13T00:04:28.272Z,98722.63
2023-03-13T00:07:02.275Z,98720.81
2023-03-13T00:09:33.961Z,98723.13
2023-03-13T00:12:05.870Z,98729.84
2023-03-13T00:14:37.572Z,98734.78
2023-03-13T00:17:09.381Z,98728.34
2023-03-13T00:19:41.160Z,98721.78
2023-03-13T00:22:12.869Z,98732.16
2023-03-13T00:24:46.316Z,98727.06
2023-03-13T00:27:18.323Z,98729.16
2023-03-13T00:29:50.876Z,98724.88
2023-03-13T00:32:22.602Z,98728.19
2023-03-13T00:34:56.185Z,98723.56
2023-03-13T00:37:27.909Z,98716.66
2023-03-13T00:40:02.641Z,98725.53
2023-03-13T00:42:35.005Z,98725.72
2023-03-13T00:45:07.094Z,98715.66
2023-03-13T00:47:38.816Z,98730.44
2023-03-13T00:50:11.008Z,98725.03
2023-03-13T00:52:42.691Z,98722.22
2023-03-13T00:55:14.428Z,98728.16
2023-03-13T00:57:46.167Z,98717.25
2023-03-13T01:00:18.382Z,98728.63
2023-03-13T01:02:50.232Z,98720.06
2023-03-13T01:13:35.145Z,98722.28
2023-03-13T01:16:10.195Z,98719.66
2023-03-13T01:18:45.071Z,98717.53
2023-03-13T01:21:19.920Z,98730.53
2023-03-13T01:23:53.638Z,98736.41
2023-03-13T01:26:26.357Z,98730.97
2023-03-13T01:28:58.764Z,98723.09
2023-03-13T01:31:33.675Z,98715.19
2023-03-13T01:34:06.508Z,98721.09
2023-03-13T01:36:38.243Z,98720.91
2023-03-13T01:39:09.981Z,98720.75
2023-03-13T01:41:41.698Z,98703.78
2023-03-13T01:44:23.591Z,98711.31
2023-03-13T01:46:55.835Z,98708.22
2023-03-13T01:49:34.182Z,98703.78
2023-03-13T01:52:31.280Z,98695.88
2023-03-13T01:55:18.574Z,98687.78
2023-03-13T01:57:54.664Z,98686.31
2023-03-13T02:00:33.121Z,98681.47
2023-03-13T02:03:12.259Z,98686.91
2023-03-13T02:05:46.924Z,98675.53
2023-03-13T02:08:24.209Z,98676.53
2023-03-13T02:11:26.644Z,98677.84
2023-03-13T02:13:59.349Z,98680.66
2023-03-13T02:16:34.225Z,98687.34
2023-03-13T02:19:27.872Z,98681.09
2023-03-13T02:22:31.590Z,98679.66
2023-03-13T02:25:09.285Z,98678.19
2023-03-13T02:27:43.269Z,98687.88
2023-03-13T02:30:15.695Z,98681.63
2023-03-13T02:32:47.493Z,98683.13
2023-03-13T02:35:22.118Z,98674.03
2023-03-13T02:37:58.011Z,98687.84
2023-03-13T02:40:35.434Z,98686.91
2023-03-13T02:43:15.247Z,98681.19
2023-03-13T02:46:15.771Z,98678.53
2023-03-13T02:48:53.227Z,98676.72
2023-03-13T02:51:41.799Z,98669.28
2023-03-13T02:54:29.854Z,98674.84
2023-03-13T02:57:04.160Z,98671.22
2023-03-13T02:59:36.076Z,98670.22
2023-03-13T03:02:07.837Z,98678.31
2023-03-13T03:04:41.923Z,98674.50
2023-03-13T03:07:15.760Z,98674.50
2023-03-13T03:09:47.467Z,98667.22
2023-03-13T03:12:23.518Z,98674.81
2023-03-13T03:14:55.241Z,98660.44
2023-03-13T03:17:27.712Z,98663.06
2023-03-13T03:20:01.213Z,98652.38
2023-03-13T03:22:32.884Z,98650.28
2023-03-13T03:25:06.862Z,98642.38
2023-03-13T03:27:38.918Z,98644.34
2023-03-13T03:30:13.089Z,98650.44
2023-03-13T03:32:44.880Z,98648.63
2023-03-13T03:35:16.756Z,98642.38
2023-03-13T03:37:48.624Z,98646.28
2023-03-13T03:40:21.440Z,98647.09
2023-03-13T03:42:53.289Z,98649.91
2023-03-13T03:45:25.086Z,98646.44
2023-03-13T03:47:59.772Z,98644.34
2023-03-13T03:50:32.096Z,98646.00
2023-03-13T03:53:06.172Z,98638.09
2023-03-13T03:55:37.893Z,98639.06
2023-03-13T03:58:09.673Z,98635.78
2023-03-13T04:01:02.404Z,98639.44
2023-03-13T04:03:34.315Z,98626.44
2023-03-13T04:06:07.580Z,98626.59
2023-03-13T04:08:39.374Z,98626.59
2023-03-13T04:11:11.387Z,98616.72
2023-03-13T04:13:46.438Z,98616.25
2023-03-13T04:16:18.283Z,98614.63
2023-03-13T04:18:51.659Z,98603.91
2023-03-13T04:21:23.919Z,98600.81
2023-03-13T04:24:00.045Z,98603.28
2023-03-13T04:26:32.249Z,98609.69
2023-03-13T04:29:06.294Z,98608.53
2023-03-13T04:32:04.435Z,98597.34
2023-03-13T04:35:05.552Z,98594.72
2023-03-13T04:38:15.528Z,98586.97
2023-03-13T04:41:06.751Z,98586.16
2023-03-13T04:43:57.160Z,98581.72
2023-03-13T04:46:34.596Z,98568.75
2023-03-13T04:49:11.170Z,98567.09
2023-03-13T04:52:08.725Z,98582.09
2023-03-13T04:54:52.123Z,98572.38
2023-03-13T04:57:40.820Z,98566.28
2023-03-13T05:00:41.140Z,98567.72
2023-03-13T05:03:35.781Z,98559.00
2023-03-13T05:06:20.759Z,98559.81
2023-03-13T05:09:10.820Z,98547.69
2023-03-13T05:12:01.284Z,98551.66
2023-03-13T05:14:55.704Z,98545.22
2023-03-13T05:17:47.635Z,98543.56
2023-03-13T05:20:45.662Z,98541.59
2023-03-13T05:23:39.139Z,98543.69
2023-03-13T05:26:29.296Z,98539.41
2023-03-13T05:29:15.088Z,98535.13
2023-03-13T05:32:01.345Z,98525.59
2023-03-13T05:34:56.073Z,98524.44
2023-03-13T05:37:50.244Z,98522.25
2023-03-13T05:40:36.881Z,98511.38
2023-03-13T05:43:26.608Z,98496.56
2023-03-13T05:46:31.107Z,98487.94
2023-03-13T05:49:21.212Z,98485.75
2023-03-13T05:52:13.156Z,98490.50
2023-03-13T05:55:13.923Z,98488.47
2023-03-13T05:58:11.738Z,98483.22
2023-03-13T06:01:14.252Z,98482.66
2023-03-13T06:04:03.502Z,98472.59
2023-03-13T06:06:38.427Z,98478.56
2023-03-13T06:09:11.798Z,98475.75
2023-03-13T06:11:44.410Z,98472.13
2023-03-13T06:14:16.498Z,98467.13
2023-03-13T06:17:08.142Z,98473.31
2023-03-13T06:19:39.899Z,98471.66
2023-03-13T06:22:11.579Z,98464.19
2023-03-13T06:24:44.752Z,98469.47
2023-03-13T06:27:17.076Z,98472.75
2023-03-13T06:29:48.868Z,98475.94
2023-03-13T06:32:21.901Z,98465.66
2023-03-13T06:34:53.632Z,98459.31
2023-03-13T06:37:25.332Z,98469.47
2023-03-13T06:39:58.284Z,98452.31
2023-03-13T06:42:30.415Z,98461.66
2023-03-13T06:45:03.476Z,98452.75
2023-03-13T06:47:35.152Z,98449.13
2023-03-13T06:50:07.414Z,98439.94
2023-03-13T06:52:43.939Z,98439.56
2023-03-13T06:55:16.108Z,98441.47
2023-03-13T06:57:52.133Z,98449.63
2023-03-13T07:00:26.805Z,98448.28
2023-03-13T07:02:58.586Z,98454.25
2023-03-13T07:05:30.309Z,98440.06
2023-03-13T07:08:02.042Z,98439.69
2023-03-13T07:10:36.639Z,98452.69
2023-03-13T07:13:09.755Z,98434.28
2023-03-13T07:15:41.541Z,98424.38
2023-03-13T07:18:13.187Z,98424.81
2023-03-13T07:20:44.917Z,98425.44
2023-03-13T07:23:16.629Z,98424.25
2023-03-13T07:26:15.315Z,98418.59
2023-03-13T07:28:47.031Z,98425.31
2023-03-13T07:31:21.467Z,98418.84
2023-03-13T07:33:56.561Z,98417.69
2023-03-13T07:36:28.668Z,98405.66
2023-03-13T07:39:00.371Z,98407.22
2023-03-13T07:41:32.101Z,98400.50
2023-03-13T07:44:03.781Z,98418.53
2023-03-13T07:46:35.577Z,98414.84
2023-03-13T07:49:09.345Z,98406.09
2023-03-13T07:51:44.217Z,98411.13
2023-03-13T07:54:16.093Z,98395.53
2023-03-13T07:56:48.883Z,98396.19
2023-03-13T07:59:20.542Z,98380.59
2023-03-13T08:01:54.452Z,98378.84
2023-03-13T08:04:28.539Z,98374.09
2023-03-13T08:07:00.234Z,98374.50
2023-03-13T08:09:35.541Z,98357.09
2023-03-13T08:12:07.948Z,98359.22
2023-03-13T08:14:42.213Z,98367.19
2023-03-13T08:17:39.667Z,98365.00
2023-03-13T08:20:11.726Z,98359.78
2023-03-13T08:22:43.417Z,98355.78
2023-03-13T08:25:16.292Z,98346.44
2023-03-13T08:27:48.033Z,98345.66
2023-03-13T08:30:20.072Z,98353.41
2023-03-13T08:32:51.817Z,98343.50
2023-03-13T08:35:26.428Z,98340.59
2023-03-13T08:37:58.167Z,98329.97
2023-03-13T08:40:29.867Z,98331.56
2023-03-13T08:43:01.594Z,98314.50
2023-03-13T08:45:36.374Z,98319.41
2023-03-13T08:48:08.272Z,98319.16
2023-03-13T08:50:39.967Z,98319.00
2023-03-13T08:53:11.659Z,98322.84
2023-03-13T08:55:43.451Z,98316.41
2023-03-13T08:58:15.151Z,98314.78
2023-03-13T09:00:46.808Z,98322.31
2023-03-13T09:03:22.014Z,98297.50
2023-03-13T09:06:01.344Z,98285.56
2023-03-13T09:08:36.327Z,98297.53
2023-03-13T09:11:14.401Z,98292.47
2023-03-13T09:13:48.984Z,98290.84
2023-03-13T09:16:27.394Z,98290.66
2023-03-13T09:19:01.463Z,98284.75
2023-03-13T09:21:35.729Z,98287.84
2023-03-13T09:24:07.888Z,98284.16
2023-03-13T09:26:42.689Z,98311.19
2023-03-13T09:29:22.383Z,98305.31
2023-03-13T09:31:54.112Z,98312.44
2023-03-13T09:34:30.425Z,98310.38
2023-03-13T09:37:02.161Z,98300.19
2023-03-13T09:39:33.936Z,98299.59
2023-03-13T09:42:19.101Z,98300.81
2023-03-13T09:45:01.694Z,98329.50
2023-03-13T09:47:44.398Z,98293.13
2023-03-13T09:50:23.921Z,98289.69
2023-03-13T09:53:14.063Z,98275.22
2023-03-13T09:55:48.857Z,98278.09
2023-03-13T09:58:28.215Z,98284.44
2023-03-13T10:01:06.629Z,98279.53
2023-03-13T10:03:53.618Z,98272.41
2023-03-13T10:06:27.856Z,98275.69
2023-03-13T10:09:01.277Z,98271.41
2023-03-13T10:11:41.507Z,98268.94
2023-03-13T10:14:42.916Z,98255.06
2023-03-13T10:17:31.554Z,98248.78
2023-03-13T10:20:22.089Z,98255.88
2023-03-13T10:23:13.945Z,98247.09
2023-03-13T10:25:49.630Z,98243.59
2023-03-13T10:28:23.103Z,98224.44
2023-03-13T10:31:27.994Z,98218.69
2023-03-13T10:34:27.584Z,98228.84
2023-03-13T10:37:02.007Z,98238.78
2023-03-13T10:39:33.760Z,98238.31
2023-03-13T10:42:18.997Z,98240.97
2023-03-13T10:44:56.629Z,98245.28
2023-03-13T10:47:36.365Z,98235.88
2023-03-13T10:50:19.078Z,98227.50
2023-03-13T10:52:51.726Z,98220.38
2023-03-13T10:55:25.153Z,98228.69
2023-03-13T10:58:05.252Z,98224.84
2023-03-13T11:00:39.235Z,98226.22
2023-03-13T11:03:18.517Z,98231.47
2023-03-13T11:05:59.142Z,98217.56
2023-03-13T11:08:35.812Z,98212.50
2023-03-13T11:11:19.356Z,98203.09
2023-03-13T11:13:51.120Z,98201.66
2023-03-13T11:16:28.582Z,98200.44
2023-03-13T11:19:19.766Z,98202.41
2023-03-13T11:21:54.710Z,98200.31
2023-03-13T11:24:42.539Z,98190.59
2023-03-13T11:27:32.464Z,98190.16
2023-03-13T11:30:11.787Z,98185.13
2023-03-13T11:33:01.970Z,98172.59
2023-03-13T11:35:45.534Z,98164.78
2023-03-13T11:38:29.266Z,98156.75
2023-03-13T11:41:24.270Z,98143.19
2023-03-13T11:44:12.645Z,98158.47
2023-03-13T11:46:50.010Z,98153.16
2023-03-13T11:49:45.639Z,98163.19
2023-03-13T11:52:35.736Z,98154.31
2023-03-13T11:55:46.137Z,98156.09
2023-03-13T11:58:42.200Z,98160.03
2023-03-13T12:01:19.085Z,98159.63
2023-03-13T12:04:19.898Z,98184.22
2023-03-13T12:07:02.413Z,98195.50
2023-03-13T12:09:51.692Z,98185.69
2023-03-13T12:12:47.837Z,98184.00
2023-03-13T12:15:26.815Z,98178.69
2023-03-13T12:18:04.445Z,98180.00
2023-03-13T12:21:05.617Z,98183.47
2023-03-13T12:23:45.876Z,98190.25
2023-03-13T12:26:25.148Z,98166.91
2023-03-13T12:29:10.811Z,98171.22
2023-03-13T12:31:51.922Z,98172.22
2023-03-13T12:34:46.783Z,98172.03
2023-03-13T12:37:25.082Z,98159.50
2023-03-13T12:40:28.549Z,98152.34
2023-03-13T12:43:30.935Z,98145.59
2023-03-13T12:46:25.862Z,98162.06
2023-03-13T12:49:34.508Z,98145.47
2023-03-13T12:52:24.737Z,98138.09
2023-03-13T12:55:19.151Z,98135.44
2023-03-13T12:57:56.694Z,98141.13
2023-03-13T13:00:31.488Z,98132.31
2023-03-13T13:03:03.179Z,98149.50
2023-03-13T13:05:34.919Z,98143.34
2023-03-13T13:08:06.689Z,98148.66
2023-03-13T13:10:41.954Z,98140.91
2023-03-13T13:13:13.558Z,98141.88
2023-03-13T13:16:04.514Z,98139.59
2023-03-13T13:18:36.382Z,98153.25
2023-03-13T13:21:08.005Z,98147.56
2023-03-13T13:23:46.612Z,98124.91
2023-03-13T13:26:29.605Z,98122.59
2023-03-13T13:29:22.291Z,98128.06
2023-03-13T13:31:58.854Z,98126.44
2023-03-13T13:34:36.375Z,98117.44
2023-03-13T13:37:17.794Z,98106.59
2023-03-13T13:39:54.710Z,98112.84
2023-03-13T13:42:32.523Z,98114.47
2023-03-13T13:45:05.853Z,98124.81
2023-03-13T13:47:40.972Z,98115.94
2023-03-13T13:50:25.405Z,98110.63
2023-03-13T13:53:33.290Z,98103.88
2023-03-13T13:56:25.066Z,98098.78
2023-03-13T13:59:24.835Z,98086.91
2023-03-13T14:02:10.470Z,98089.44
2023-03-13T14:04:59.585Z,98089.06
2023-03-13T14:07:37.081Z,98094.03
2023-03-13T14:10:33.614Z,98092.19
2023-03-13T14:13:15.082Z,98094.25
2023-03-13T14:15:48.983Z,98097.25
2023-03-13T14:18:22.629Z,98093.81
2023-03-13T14:21:02.441Z,98086.28
2023-03-13T14:23:42.098Z,98082.00
2023-03-13T14:26:17.963Z,98083.03
2023-03-13T14:28:58.241Z,98076.25
2023-03-13T14:31:35.260Z,98073.72
2023-03-13T14:34:12.958Z,98070.16
2023-03-13T14:36:50.558Z,98057.19
2023-03-13T14:39:38.516Z,98051.66
2023-03-13T14:42:13.605Z,98032.38
2023-03-13T14:44:49.228Z,98032.28
2023-03-13T14:47:30.865Z,98037.50
2023-03-13T14:50:12.019Z,98042.72
2023-03-13T14:52:57.494Z,98047.91
2023-03-13T14:55:33.136Z,98041.91
2023-03-13T14:58:20.949Z,98040.75
2023-03-13T15:00:53.310Z,98037.75
2023-03-13T15:03:31.044Z,98025.50
2023-03-13T15:06:11.879Z,97999.56
2023-03-13T15:09:06.188Z,98001.56
2023-03-13T15:11:42.742Z,97990.91
2023-03-13T15:14:50.791Z,97980.66
2023-03-13T15:17:25.266Z,97979.63
2023-03-13T15:19:58.887Z,97988.88
2023-03-13T15:22:41.960Z,97972.91
2023-03-13T15:25:23.074Z,97971.16
2023-03-13T15:27:54.749Z,97979.16
2023-03-13T15:30:26.367Z,97969.31
2023-03-13T15:32:58.201Z,97963.75
2023-03-13T15:35:32.378Z,97964.56
2023-03-13T15:38:04.203Z,97959.38
2023-03-13T15:40:35.964Z,97955.09
2023-03-13T15:43:07.727Z,97967.03
2023-03-13T15:45:42.166Z,97967.72
2023-03-13T15:48:18.202Z,97966.34
2023-03-13T15:50:51.922Z,97956.75
2023-03-13T15:53:27.764Z,97944.94
2023-03-13T15:56:01.821Z,97946.44
2023-03-13T15:58:33.503Z,97946.44
2023-03-13T16:01:05.462Z,97962.91
2023-03-13T16:03:37.183Z,97957.69
2023-03-13T16:06:16.812Z,97956.16
2023-03-13T16:08:48.673Z,97957.47
2023-03-13T16:11:20.479Z,97952.38
2023-03-13T16:13:52.972Z,97955.84
2023-03-13T16:16:30.541Z,97947.88
2023-03-13T16:19:04.315Z,97939.53
2023-03-13T16:21:36.228Z,97934.44
2023-03-13T16:24:08.113Z,97942.88
2023-03-13T16:26:39.835Z,97930.88
2023-03-13T16:29:13.449Z,97924.38
2023-03-13T16:31:45.232Z,97934.91
2023-03-13T16:34:17.736Z,97931.94
2023-03-13T16:36:49.390Z,97918.63
2023-03-13T16:39:21.134Z,97919.06
2023-03-13T16:41:52.889Z,97905.44
2023-03-13T16:44:27.089Z,97907.53
2023-03-13T16:47:06.033Z,97898.72
2023-03-13T16:49:38.260Z,97900.84
2023-03-13T16:52:19.164Z,97910.88
2023-03-13T16:54:50.878Z,97894.81
2023-03-13T16:57:26.345Z,97893.78
2023-03-13T16:59:58.068Z,97892.63
2023-03-13T17:02:29.820Z,97884.06
2023-03-13T17:05:01.589Z,97882.13
2023-03-13T17:07:33.372Z,97878.53
2023-03-13T17:10:16.683Z,97880.03
2023-03-13T17:12:49.031Z,97874.59
2023-03-13T17:15:21.809Z,97867.66
2023-03-13T17:17:54.002Z,97863.84
2023-03-13T17:20:28.460Z,97859.00
2023-03-13T17:23:01.114Z,97858.44
2023-03-13T17:25:33.278Z,97847.69
2023-03-13T17:28:05.127Z,97847.56
2023-03-13T17:30:36.842Z,97848.50
2023-03-13T17:33:08.515Z,97843.28
2023-03-13T17:35:40.284Z,97838.41
2023-03-13T17:38:15.535Z,97836.44
2023-03-13T17:40:47.204Z,97833.44
2023-03-13T17:43:18.896Z,97824.75
2023-03-13T17:45:50.568Z,97823.34
2023-03-13T17:48:22.325Z,97830.41
2023-03-13T17:50:54.195Z,97821.06
2023-03-13T17:53:25.859Z,97821.28
2023-03-13T17:55:57.620Z,97814.81
2023-03-13T17:58:29.283Z,97817.09
2023-03-13T18:01:00.990Z,97818.38
2023-03-13T18:03:32.655Z,97821.47
2023-03-13T18:06:05.030Z,97826.88
2023-03-13T18:08:36.740Z,97825.25
2023-03-13T18:11:11.607Z,97818.56
2023-03-13T18:13:44.871Z,97816.38
2023-03-13T18:16:19.798Z,97813.16
2023-03-13T18:18:52.505Z,97807.25
2023-03-13T18:21:24.671Z,97802.41
2023-03-13T18:23:57.081Z,97802.03
2023-03-13T18:26:37.009Z,97788.41
2023-03-13T18:29:25.992Z,97790.69
2023-03-13T18:32:00.501Z,97791.97
2023-03-13T18:34:32.670Z,97785.06
2023-03-13T18:37:16.096Z,97782.50
2023-03-13T18:39:50.011Z,97779.25
2023-03-13T18:42:23.145Z,97780.94
2023-03-13T18:44:54.883Z,97784.28
2023-03-13T18:47:28.604Z,97766.06
2023-03-13T18:50:00.290Z,97756.69
2023-03-13T18:52:31.977Z,97756.91
2023-03-13T18:55:03.844Z,97737.63
2023-03-13T18:57:35.855Z,97745.03
2023-03-13T19:00:23.328Z,97736.94
2023-03-13T19:02:55.728Z,97725.53
2023-03-13T19:05:27.654Z,97724.72
2023-03-13T19:07:59.430Z,97710.84
2023-03-13T19:10:34.208Z,97716.97
2023-03-13T19:13:05.902Z,97709.06
2023-03-13T19:15:38.053Z,97709.28
2023-03-13T19:18:11.794Z,97701.34
2023-03-13T19:20:43.630Z,97697.09
2023-03-13T19:23:15.259Z,97680.72
2023-03-13T19:25:46.978Z,97682.56
2023-03-13T19:28:19.827Z,97678.53
2023-03-13T19:30:51.785Z,97681.63
2023-03-13T19:33:23.472Z,97672.28
2023-03-13T19:35:55.280Z,97676.78
2023-03-13T19:38:27.096Z,97672.50
2023-03-13T19:40:58.934Z,97680.25
2023-03-13T19:43:30.620Z,97679.56
2023-03-13T19:46:17.555Z,97682.00
2023-03-13T19:48:51.912Z,97667.69
2023-03-13T19:51:24.910Z,97665.50
2023-03-13T19:53:57.030Z,97655.72
2023-03-13T19:56:31.753Z,97654.09
2023-03-13T19:59:04.766Z,97653.28
2023-03-13T20:01:36.700Z,97645.31
2023-03-13T20:04:08.530Z,97637.16
2023-03-13T20:06:41.338Z,97616.50
2023-03-13T20:09:16.307Z,97621.38
2023-03-13T20:11:48.018Z,97612.00
2023-03-13T20:14:20.005Z,97610.75
2023-03-13T20:16:51.838Z,97602.00
2023-03-13T20:19:25.523Z,97597.16
2023-03-13T20:22:03.421Z,97596.56
2023-03-13T20:24:36.241Z,97587.22
2023-03-13T20:27:08.008Z,97584.34
2023-03-13T20:29:41.353Z,97573.97
2023-03-13T20:32:16.877Z,97575.13
2023-03-13T20:34:48.608Z,97576.97
2023-03-13T20:37:20.871Z,97565.19
2023-03-13T20:39:52.601Z,97549.97
2023-03-13T20:42:24.258Z,97562.19
2023-03-13T20:44:56.006Z,97566.91
2023-03-13T20:47:27.683Z,97571.66
2023-03-13T20:49:59.488Z,97564.13
2023-03-13T20:52:31.147Z,97549.50
2023-03-13T20:55:02.927Z,97556.41
2023-03-13T20:57:36.718Z,97552.16
2023-03-13T21:00:11.655Z,97558.03
2023-03-13T21:02:43.515Z,97542.72
2023-03-13T21:05:15.991Z,97539.59
2023-03-13T21:07:48.037Z,97543.66
2023-03-13T21:10:21.057Z,97542.63
2023-03-13T21:12:52.851Z,97537.09
2023-03-13T21:15:24.588Z,97529.72
2023-03-13T21:17:56.542Z,97526.72
2023-03-13T21:20:29.284Z,97512.44
2023-03-13T21:23:01.007Z,97512.66
2023-03-13T21:25:32.726Z,97509.19
2023-03-13T21:28:04.641Z,97502.50
2023-03-13T21:30:39.219Z,97502.97
2023-03-13T21:33:11.961Z,97482.59
2023-03-13T21:35:45.882Z,97471.06
2023-03-13T21:38:17.745Z,97460.69
2023-03-13T21:40:49.472Z,97457.44
2023-03-13T21:43:21.171Z,97452.63
2023-03-13T21:45:52.882Z,97446.84
2023-03-13T21:48:24.842Z,97450.56
2023-03-13T21:50:56.534Z,97453.66
2023-03-13T21:53:28.225Z,97450.66
2023-03-13T21:55:59.990Z,97448.44
2023-03-13T21:58:31.710Z,97434.66
2023-03-13T22:01:03.593Z,97409.19
2023-03-13T22:03:35.319Z,97424.50
2023-03-13T22:06:18.650Z,97432.44
2023-03-13T22:08:51.072Z,97441.19
2023-03-13T22:11:22.799Z,97460.66
2023-03-13T22:13:54.632Z,97466.38
2023-03-13T22:16:26.762Z,97465.22
2023-03-13T22:19:01.200Z,97458.28
2023-03-13T22:21:32.952Z,97448.47
2023-03-13T22:24:04.836Z,97450.19
2023-03-13T22:26:36.648Z,97456.97
2023-03-13T22:29:08.393Z,97453.84
2023-03-13T22:31:40.145Z,97462.16
2023-03-13T22:34:11.871Z,97466.19
2023-03-13T22:36:43.636Z,97480.63
2023-03-13T22:39:15.324Z,97489.72
2023-03-13T22:41:47.292Z,97492.47
2023-03-13T22:44:19.432Z,97502.63
2023-03-13T22:46:52.683Z,97509.31
2023-03-13T22:49:24.690Z,97526.00
2023-03-13T22:51:56.566Z,97530.16
2023-03-13T22:54:28.270Z,97520.66
2023-03-13T22:57:00.018Z,97491.63
2023-03-13T22:59:31.834Z,97481.25
2023-03-13T23:02:03.566Z,97476.78
2023-03-13T23:04:35.285Z,97477.59
2023-03-13T23:07:07.051Z,97508.53
2023-03-13T23:09:41.643Z,97526.84
2023-03-13T23:12:13.347Z,97533.19
2023-03-13T23:14:45.032Z,97539.16
2023-03-13T23:17:16.857Z,97540.63
2023-03-13T23:19:48.531Z,97546.56
2023-03-13T23:22:21.998Z,97564.31
2023-03-13T23:24:54.142Z,97554.38
2023-03-13T23:27:40.874Z,97563.13
2023-03-13T23:30:15.240Z,97548.88
2023-03-13T23:32:48.457Z,97533.88
2023-03-13T23:35:20.464Z,97518.69
2023-03-13T23:37:55.209Z,97501.63
2023-03-13T23:40:28.248Z,97497.00
2023-03-13T23:42:59.958Z,97518.22
2023-03-13T23:45:31.681Z,97517.44
2023-03-13T23:48:03.525Z,97520.44
2023-03-13T23:50:36.253Z,97545.06
2023-03-13T23:53:07.989Z,97556.47
2023-03-13T23:55:39.631Z,97576.34
2023-03-13T23:58:11.360Z,97588.56
